createdAt,value
2018-07-19T00:00:12.807Z,16.69
2018-07-19T00:02:42.278Z,16.70
2018-07-19T00:05:11.800Z,16.63
2018-07-19T00:07:41.188Z,16.69
2018-07-19T00:10:10.569Z,16.60
2018-07-19T00:12:40.488Z,16.48
2018-07-19T00:15:10.294Z,16.49
2018-07-19T00:17:40.232Z,16.43
2018-07-19T00:20:10.774Z,16.33
2018-07-19T00:22:40.416Z,16.44
2018-07-19T00:25:09.984Z,16.32
2018-07-19T00:27:40.424Z,16.28
2018-07-19T00:30:10.325Z,16.38
2018-07-19T00:32:40.249Z,16.22
2018-07-19T00:35:10.025Z,16.29
2018-07-19T00:37:40.569Z,16.30
2018-07-19T00:40:10.466Z,16.21
2018-07-19T00:42:40.288Z,16.23
2018-07-19T00:45:10.041Z,16.27
2018-07-19T00:47:39.877Z,16.14
2018-07-19T00:50:09.948Z,16.11
2018-07-19T00:52:39.602Z,16.06
2018-07-19T00:55:09.371Z,16.08
2018-07-19T00:57:39.467Z,16.07
2018-07-19T01:00:09.441Z,16.11
2018-07-19T01:02:39.025Z,16.15
2018-07-19T01:05:10.373Z,15.97
2018-07-19T01:07:40.214Z,15.98
2018-07-19T01:10:09.938Z,16.01
2018-07-19T01:12:40.085Z,15.79
2018-07-19T01:15:09.857Z,15.97
2018-07-19T01:17:39.485Z,15.97
2018-07-19T01:20:11.100Z,15.92
2018-07-19T01:22:41.130Z,15.88
2018-07-19T01:25:10.916Z,15.65
2018-07-19T01:27:41.786Z,15.57
2018-07-19T01:30:11.377Z,15.58
2018-07-19T01:32:40.995Z,15.48
2018-07-19T01:35:10.797Z,15.45
2018-07-19T01:37:40.421Z,15.38
2018-07-19T01:40:10.107Z,15.41
2018-07-19T01:42:41.967Z,15.39
2018-07-19T01:45:12.308Z,15.34
2018-07-19T01:47:42.543Z,15.31
2018-07-19T01:50:12.533Z,15.39
2018-07-19T01:52:42.880Z,15.37
2018-07-19T01:55:12.618Z,15.35
2018-07-19T01:57:41.983Z,15.26
2018-07-19T02:00:12.714Z,15.22
2018-07-19T02:02:42.576Z,15.22
2018-07-19T02:05:12.118Z,15.29
2018-07-19T02:07:41.576Z,15.12
2018-07-19T02:10:11.540Z,15.07
2018-07-19T02:12:41.556Z,14.99
2018-07-19T02:15:11.164Z,14.90
2018-07-19T02:17:40.669Z,14.87
2018-07-19T02:20:10.380Z,14.88
2018-07-19T02:22:39.980Z,14.94
2018-07-19T02:25:09.741Z,14.95
2018-07-19T02:27:39.518Z,14.99
2018-07-19T02:30:09.868Z,14.96
2018-07-19T02:32:39.805Z,14.92
2018-07-19T02:35:10.518Z,14.91
2018-07-19T02:37:40.303Z,14.96
2018-07-19T02:40:10.114Z,14.92
2018-07-19T02:42:39.749Z,15.07
2018-07-19T02:45:09.384Z,15.04
2018-07-19T02:47:39.160Z,15.09
2018-07-19T02:50:08.976Z,15.07
2018-07-19T02:52:38.965Z,15.04
2018-07-19T02:55:08.580Z,15.06
2018-07-19T02:57:38.209Z,14.97
2018-07-19T03:00:07.711Z,15.01
2018-07-19T03:02:37.340Z,14.92
2018-07-19T03:05:07.363Z,14.82
2018-07-19T03:07:38.436Z,14.89
2018-07-19T03:10:08.364Z,14.83
2018-07-19T03:12:38.014Z,14.92
2018-07-19T03:15:08.703Z,14.86
2018-07-19T03:17:38.311Z,14.83
2018-07-19T03:20:07.958Z,14.79
2018-07-19T03:22:38.174Z,14.75
2018-07-19T03:25:08.272Z,14.72
2018-07-19T03:27:37.930Z,14.64
2018-07-19T03:30:07.924Z,14.58
2018-07-19T03:32:37.788Z,14.54
2018-07-19T03:35:07.543Z,14.62
2018-07-19T03:37:37.513Z,14.60
2018-07-19T03:40:07.337Z,14.65
2018-07-19T03:42:37.003Z,14.65
2018-07-19T03:45:06.766Z,14.67
2018-07-19T03:47:36.579Z,14.63
2018-07-19T03:50:06.387Z,14.69
2018-07-19T03:52:36.456Z,14.72
2018-07-19T03:55:06.407Z,14.76
2018-07-19T03:57:36.499Z,14.74
2018-07-19T04:00:07.084Z,14.77
2018-07-19T04:02:38.246Z,14.73
2018-07-19T04:05:08.366Z,14.77
2018-07-19T04:07:38.570Z,14.85
2018-07-19T04:10:08.937Z,14.92
2018-07-19T04:12:40.537Z,14.97
2018-07-19T04:15:10.554Z,15.05
2018-07-19T04:17:45.446Z,15.05
2018-07-19T04:20:16.172Z,15.21
2018-07-19T04:22:45.759Z,15.11
2018-07-19T04:25:15.248Z,15.08
2018-07-19T04:27:44.754Z,15.12
2018-07-19T04:30:15.488Z,15.30
2018-07-19T04:32:50.871Z,15.38
2018-07-19T04:35:20.734Z,15.44
2018-07-19T04:37:50.450Z,15.47
2018-07-19T04:40:19.824Z,15.44
2018-07-19T04:42:49.846Z,15.52
2018-07-19T04:45:19.208Z,15.61
2018-07-19T04:47:48.543Z,15.67
2018-07-19T04:50:18.021Z,15.73
2018-07-19T04:52:47.250Z,15.69
2018-07-19T04:55:16.594Z,15.78
2018-07-19T04:57:45.908Z,15.85
2018-07-19T05:00:16.475Z,15.96
2018-07-19T05:02:46.134Z,16.00
2018-07-19T05:05:15.606Z,16.05
2018-07-19T05:07:45.206Z,16.02
2018-07-19T05:10:15.214Z,16.08
2018-07-19T05:12:44.799Z,16.18
2018-07-19T05:15:14.386Z,16.14
2018-07-19T05:17:44.329Z,16.14
2018-07-19T05:20:13.902Z,16.25
2018-07-19T05:22:43.432Z,16.18
2018-07-19T05:25:13.412Z,16.11
2018-07-19T05:27:43.337Z,16.23
2018-07-19T05:30:13.095Z,16.39
2018-07-19T05:32:44.221Z,16.45
2018-07-19T05:35:14.456Z,16.75
2018-07-19T05:37:44.269Z,16.88
2018-07-19T05:40:13.856Z,17.16
2018-07-19T05:42:44.476Z,17.32
2018-07-19T05:45:14.086Z,17.39
2018-07-19T05:47:46.763Z,17.43
2018-07-19T05:50:16.563Z,17.51
2018-07-19T05:52:46.744Z,17.43
2018-07-19T05:55:16.545Z,17.54
2018-07-19T05:57:46.432Z,17.64
2018-07-19T06:00:17.035Z,17.66
2018-07-19T06:02:46.909Z,17.68
2018-07-19T06:05:18.351Z,17.71
2018-07-19T06:07:51.309Z,17.86
2018-07-19T06:10:20.705Z,18.07
2018-07-19T06:12:50.036Z,18.12
2018-07-19T06:15:19.411Z,18.19
2018-07-19T06:17:48.788Z,18.15
2018-07-19T06:20:18.189Z,18.23
2018-07-19T06:22:47.728Z,18.33
2018-07-19T06:25:17.322Z,18.19
2018-07-19T06:27:46.727Z,18.02
2018-07-19T06:30:16.234Z,18.22
2018-07-19T06:32:45.778Z,18.43
2018-07-19T06:35:15.512Z,18.72
2018-07-19T06:37:45.393Z,18.96
2018-07-19T06:40:15.888Z,18.78
2018-07-19T06:42:45.479Z,18.84
2018-07-19T06:45:15.001Z,18.81
2018-07-19T06:47:44.834Z,18.64
2018-07-19T06:50:14.619Z,18.74
2018-07-19T06:52:44.230Z,18.83
2018-07-19T06:55:14.470Z,18.90
2018-07-19T06:57:44.607Z,19.02
2018-07-19T07:00:14.494Z,19.02
2018-07-19T07:02:45.628Z,19.28
2018-07-19T07:05:16.861Z,19.35
2018-07-19T07:07:47.272Z,19.49
2018-07-19T07:10:17.868Z,19.58
2018-07-19T07:12:47.800Z,19.75
2018-07-19T07:15:17.582Z,19.85
2018-07-19T07:17:46.864Z,19.86
2018-07-19T07:20:16.147Z,19.64
2018-07-19T07:22:45.780Z,19.67
2018-07-19T07:25:15.285Z,19.83
2018-07-19T07:27:45.260Z,19.68
2018-07-19T07:30:15.048Z,19.56
2018-07-19T07:32:45.753Z,19.54
2018-07-19T07:35:16.505Z,19.79
2018-07-19T07:37:46.943Z,20.21
2018-07-19T07:40:16.465Z,20.37
2018-07-19T07:42:48.053Z,20.25
2018-07-19T07:45:17.627Z,20.38
2018-07-19T07:47:47.283Z,20.50
2018-07-19T07:50:17.038Z,20.52
2018-07-19T07:52:46.719Z,20.58
2018-07-19T07:55:19.802Z,20.40
2018-07-19T07:57:50.203Z,20.45
2018-07-19T08:00:19.761Z,20.58
2018-07-19T08:02:49.117Z,20.63
2018-07-19T08:05:18.536Z,20.82
2018-07-19T08:07:48.045Z,21.03
2018-07-19T08:10:17.464Z,21.11
2018-07-19T08:12:46.821Z,20.99
2018-07-19T08:15:16.756Z,20.89
2018-07-19T08:17:46.137Z,20.89
2018-07-19T08:20:15.745Z,20.85
2018-07-19T08:22:45.233Z,21.10
2018-07-19T08:25:14.960Z,21.26
2018-07-19T08:27:44.598Z,21.31
2018-07-19T08:30:14.429Z,21.41
2018-07-19T08:32:44.078Z,21.45
2018-07-19T08:35:13.708Z,21.65
2018-07-19T08:37:44.110Z,21.89
2018-07-19T08:40:14.384Z,21.83
2018-07-19T08:42:44.904Z,21.73
2018-07-19T08:45:14.818Z,21.73
2018-07-19T08:47:44.791Z,21.78
2018-07-19T08:50:14.807Z,21.75
2018-07-19T08:52:45.234Z,21.76
2018-07-19T08:55:15.141Z,21.93
2018-07-19T08:57:44.883Z,22.18
2018-07-19T09:00:16.647Z,22.28
2018-07-19T09:02:46.537Z,22.40
2018-07-19T09:05:16.297Z,22.32
2018-07-19T09:07:45.922Z,22.35
2018-07-19T09:12:44.164Z,22.37
2018-07-19T09:15:14.461Z,22.44
2018-07-19T09:17:44.091Z,22.76
2018-07-19T09:20:13.889Z,23.05
2018-07-19T09:22:45.015Z,22.90
2018-07-19T09:25:14.663Z,22.84
2018-07-19T09:27:44.365Z,23.07
2018-07-19T09:30:14.529Z,23.29
2018-07-19T09:32:44.437Z,23.22
2018-07-19T09:35:14.061Z,22.99
2018-07-19T09:37:44.772Z,22.96
2018-07-19T09:40:14.669Z,23.06
2018-07-19T09:42:44.279Z,23.36
2018-07-19T09:45:14.093Z,23.47
2018-07-19T09:47:43.927Z,23.32
2018-07-19T09:50:13.903Z,23.24
2018-07-19T09:52:44.056Z,23.14
2018-07-19T09:55:14.281Z,24.13
2018-07-19T09:57:44.504Z,24.47
2018-07-19T10:00:19.968Z,25.54
2018-07-19T10:02:49.192Z,26.45
2018-07-19T10:05:18.708Z,26.13
2018-07-19T10:07:48.290Z,25.30
2018-07-19T10:10:17.753Z,24.81
2018-07-19T10:12:47.249Z,24.80
2018-07-19T10:15:17.122Z,24.48
2018-07-19T10:17:46.709Z,24.32
2018-07-19T10:20:16.338Z,24.06
2018-07-19T10:22:45.886Z,23.87
2018-07-19T10:25:15.724Z,23.61
2018-07-19T10:27:45.323Z,23.52
2018-07-19T10:30:15.335Z,23.67
2018-07-19T10:32:45.034Z,24.65
2018-07-19T10:35:16.136Z,25.99
2018-07-19T10:37:46.209Z,26.69
2018-07-19T10:40:20.514Z,26.84
2018-07-19T10:42:49.914Z,27.49
2018-07-19T10:45:19.375Z,27.93
2018-07-19T10:47:49.362Z,28.34
2018-07-19T10:50:20.228Z,28.40
2018-07-19T10:52:49.668Z,28.97
2018-07-19T10:55:19.183Z,28.84
2018-07-19T10:57:49.625Z,28.79
2018-07-19T11:00:19.042Z,28.72
2018-07-19T11:02:48.725Z,28.83
2018-07-19T11:05:18.609Z,29.05
2018-07-19T11:07:48.044Z,29.27
2018-07-19T11:10:18.420Z,28.02
2018-07-19T11:12:48.170Z,27.52
2018-07-19T11:15:17.867Z,26.57
2018-07-19T11:17:47.862Z,25.74
2018-07-19T11:20:17.826Z,25.22
2018-07-19T11:22:47.943Z,25.05
2018-07-19T11:25:17.917Z,25.83
2018-07-19T11:27:48.055Z,27.06
2018-07-19T11:30:17.920Z,28.07
2018-07-19T11:32:48.334Z,28.40
2018-07-19T11:35:18.824Z,27.67
2018-07-19T11:37:49.297Z,26.50
2018-07-19T11:40:18.852Z,25.86
2018-07-19T11:42:48.229Z,25.49
2018-07-19T11:45:18.331Z,25.84
2018-07-19T11:47:47.873Z,26.36
2018-07-19T11:50:17.505Z,26.44
2018-07-19T11:52:46.940Z,27.01
2018-07-19T11:55:16.420Z,27.69
2018-07-19T11:57:46.265Z,28.12
2018-07-19T12:00:16.229Z,27.94
2018-07-19T12:02:45.989Z,28.12
2018-07-19T12:05:15.542Z,28.13
2018-07-19T12:07:45.001Z,28.52
2018-07-19T12:10:15.100Z,28.36
2018-07-19T12:12:44.984Z,28.61
2018-07-19T12:15:14.780Z,28.71
2018-07-19T12:17:45.824Z,28.53
2018-07-19T12:20:15.991Z,28.55
2018-07-19T12:22:46.343Z,28.92
2018-07-19T12:25:16.559Z,28.78
2018-07-19T12:27:46.483Z,29.00
2018-07-19T12:30:16.339Z,29.08
2018-07-19T12:32:46.408Z,29.16
2018-07-19T12:35:16.293Z,28.49
2018-07-19T12:37:46.325Z,28.60
2018-07-19T12:40:17.511Z,28.56
2018-07-19T12:42:47.213Z,28.68
2018-07-19T12:45:16.576Z,27.67
2018-07-19T12:47:46.517Z,27.54
2018-07-19T12:50:17.060Z,28.25
2018-07-19T12:52:47.199Z,28.84
2018-07-19T12:55:16.734Z,28.83
2018-07-19T12:57:46.083Z,29.36
2018-07-19T13:00:15.761Z,29.52
2018-07-19T13:02:45.331Z,29.03
2018-07-19T13:05:15.743Z,29.10
2018-07-19T13:07:45.621Z,29.65
2018-07-19T13:10:16.707Z,29.31
2018-07-19T13:12:47.992Z,28.58
2018-07-19T13:15:17.471Z,28.12
2018-07-19T13:17:46.993Z,28.19
2018-07-19T13:20:17.203Z,28.56
2018-07-19T13:22:48.539Z,28.61
2018-07-19T13:25:19.690Z,28.83
2018-07-19T13:27:49.213Z,28.96
2018-07-19T13:30:19.175Z,29.29
2018-07-19T13:32:49.085Z,29.21
2018-07-19T13:35:18.631Z,29.46
2018-07-19T13:37:48.170Z,29.78
2018-07-19T13:40:19.182Z,29.47
2018-07-19T13:42:49.016Z,29.82
2018-07-19T13:45:18.796Z,30.55
2018-07-19T13:47:49.145Z,29.80
2018-07-19T13:50:19.230Z,29.18
2018-07-19T13:52:59.675Z,29.95
2018-07-19T13:55:29.641Z,30.56
2018-07-19T13:58:03.658Z,30.65
2018-07-19T14:00:33.771Z,30.44
2018-07-19T14:03:04.524Z,30.38
2018-07-19T14:05:37.020Z,30.47
2018-07-19T14:08:11.746Z,30.24
2018-07-19T14:10:46.355Z,30.43
2018-07-19T14:13:17.363Z,30.89
2018-07-19T14:15:48.341Z,30.65
2018-07-19T14:18:18.151Z,30.81
2018-07-19T14:20:48.456Z,30.18
2018-07-19T14:23:19.810Z,30.63
2018-07-19T14:25:49.212Z,30.56
2018-07-19T14:28:19.063Z,30.66
2018-07-19T14:30:55.063Z,30.37
2018-07-19T14:33:25.864Z,30.35
2018-07-19T14:35:55.302Z,30.39
2018-07-19T14:38:29.381Z,29.57
2018-07-19T14:40:58.845Z,28.55
2018-07-19T14:43:29.060Z,28.73
2018-07-19T14:46:00.265Z,29.00
2018-07-19T14:48:29.963Z,29.21
2018-07-19T14:51:00.755Z,29.69
2018-07-19T14:53:30.955Z,29.85
2018-07-19T14:56:00.650Z,29.61
2018-07-19T14:58:30.315Z,29.82
2018-07-19T15:01:00.151Z,29.78
2018-07-19T15:03:29.817Z,29.26
2018-07-19T15:05:59.397Z,29.26
2018-07-19T15:08:29.241Z,28.52
2018-07-19T15:11:03.565Z,28.68
2018-07-19T15:13:34.287Z,29.53
2018-07-19T15:16:06.256Z,30.35
2018-07-19T15:18:37.126Z,30.88
2018-07-19T15:21:07.730Z,30.95
2018-07-19T15:23:38.945Z,30.89
2018-07-19T15:26:09.504Z,31.24
2018-07-19T15:28:39.774Z,30.87
2018-07-19T15:31:12.272Z,30.98
2018-07-19T15:33:47.647Z,31.03
2018-07-19T15:36:17.630Z,31.00
2018-07-19T15:38:47.440Z,30.93
2018-07-19T15:41:17.966Z,30.96
2018-07-19T15:43:48.674Z,30.96
2018-07-19T15:46:18.148Z,31.11
2018-07-19T15:48:48.149Z,31.34
2018-07-19T15:51:26.192Z,31.12
2018-07-19T15:53:59.041Z,31.07
2018-07-19T15:56:42.681Z,30.92
2018-07-19T15:59:16.844Z,31.17
2018-07-19T16:01:48.562Z,31.34
2018-07-19T16:04:18.920Z,31.62
2018-07-19T16:06:48.640Z,31.67
2018-07-19T16:09:23.017Z,31.08
2018-07-19T16:11:52.534Z,30.79
2018-07-19T16:14:21.855Z,30.80
2018-07-19T16:16:52.320Z,31.22
2018-07-19T16:19:23.019Z,30.73
2018-07-19T16:21:53.405Z,30.51
2018-07-19T16:24:22.695Z,30.26
2018-07-19T16:26:52.143Z,30.40
2018-07-19T16:29:22.790Z,30.30
2018-07-19T16:31:52.266Z,30.31
2018-07-19T16:34:21.539Z,30.11
2018-07-19T16:36:50.944Z,30.74
2018-07-19T16:39:20.343Z,30.60
2018-07-19T16:41:49.646Z,30.33
2018-07-19T16:44:19.225Z,30.38
2018-07-19T16:46:48.586Z,30.46
2018-07-19T16:49:17.928Z,30.13
2018-07-19T16:51:47.572Z,30.12
2018-07-19T16:54:19.068Z,30.15
2018-07-19T16:56:48.953Z,30.08
2018-07-19T16:59:18.932Z,29.71
2018-07-19T17:01:48.871Z,29.59
2018-07-19T17:04:18.625Z,29.13
2018-07-19T17:06:48.375Z,28.48
2018-07-19T17:09:18.565Z,27.92
2018-07-19T17:11:48.500Z,27.39
2018-07-19T17:14:18.868Z,26.88
2018-07-19T17:16:49.433Z,26.31
2018-07-19T17:19:19.833Z,25.98
2018-07-19T17:21:49.958Z,25.70
2018-07-19T17:24:20.163Z,25.54
2018-07-19T17:26:50.151Z,25.46
2018-07-19T17:29:20.265Z,25.26
2018-07-19T17:31:49.730Z,25.12
2018-07-19T17:34:19.812Z,24.98
2018-07-19T17:36:50.900Z,24.97
2018-07-19T17:39:20.899Z,24.88
2018-07-19T17:41:50.614Z,24.70
2018-07-19T17:44:20.297Z,24.70
2018-07-19T17:46:50.478Z,24.71
2018-07-19T17:49:20.195Z,24.68
2018-07-19T17:51:49.810Z,24.69
2018-07-19T17:54:19.364Z,24.68
2018-07-19T17:56:49.989Z,24.87
2018-07-19T17:59:19.506Z,25.30
2018-07-19T18:01:57.369Z,25.94
2018-07-19T18:04:27.372Z,26.46
2018-07-19T18:06:56.858Z,26.70
2018-07-19T18:09:27.682Z,26.69
2018-07-19T18:12:00.058Z,26.50
2018-07-19T18:14:31.712Z,26.49
2018-07-19T18:17:02.680Z,26.96
2018-07-19T18:19:33.469Z,26.70
2018-07-19T18:22:07.975Z,26.66
2018-07-19T18:24:41.363Z,26.41
2018-07-19T18:27:11.682Z,25.85
2018-07-19T18:29:41.546Z,25.95
2018-07-19T18:32:12.273Z,25.64
2018-07-19T18:34:43.182Z,25.71
2018-07-19T18:37:13.730Z,25.61
2018-07-19T18:39:45.882Z,25.38
2018-07-19T18:42:15.982Z,25.17
2018-07-19T18:44:45.547Z,24.80
2018-07-19T18:47:17.023Z,24.33
2018-07-19T18:49:48.661Z,24.33
2018-07-19T18:52:18.748Z,24.21
2018-07-19T18:54:48.327Z,23.87
2018-07-19T18:57:20.997Z,23.75
2018-07-19T18:59:50.513Z,23.75
2018-07-19T19:02:20.079Z,23.64
2018-07-19T19:04:49.754Z,23.55
2018-07-19T19:07:19.694Z,23.51
2018-07-19T19:09:49.332Z,23.17
2018-07-19T19:12:18.969Z,22.85
2018-07-19T19:14:48.727Z,22.60
2018-07-19T19:17:18.805Z,22.27
2018-07-19T19:19:49.093Z,22.07
2018-07-19T19:22:20.255Z,21.99
2018-07-19T19:24:50.250Z,21.83
2018-07-19T19:27:20.263Z,21.73
2018-07-19T19:29:53.671Z,21.69
2018-07-19T19:32:26.565Z,21.62
2018-07-19T19:34:56.183Z,21.38
2018-07-19T19:37:25.540Z,21.34
2018-07-19T19:39:54.878Z,21.23
2018-07-19T19:42:24.213Z,21.17
2018-07-19T19:44:54.191Z,21.03
2018-07-19T19:47:26.141Z,20.82
2018-07-19T19:49:55.721Z,20.77
2018-07-19T19:52:25.137Z,20.79
2018-07-19T19:54:54.661Z,20.65
2018-07-19T19:57:24.602Z,20.64
2018-07-19T19:59:54.273Z,20.58
2018-07-19T20:02:26.326Z,20.51
2018-07-19T20:04:55.908Z,20.27
2018-07-19T20:07:27.543Z,20.29
2018-07-19T20:09:56.913Z,20.33
2018-07-19T20:12:26.298Z,20.31
2018-07-19T20:14:59.121Z,20.14
2018-07-19T20:17:28.791Z,20.05
2018-07-19T20:19:58.352Z,20.02
2018-07-19T20:22:31.776Z,19.87
2018-07-19T20:25:01.618Z,19.86
2018-07-19T20:27:31.211Z,19.81
2018-07-19T20:30:01.226Z,19.74
2018-07-19T20:32:30.809Z,19.44
2018-07-19T20:35:00.398Z,19.50
2018-07-19T20:37:30.051Z,19.44
2018-07-19T20:39:59.924Z,19.41
2018-07-19T20:42:33.650Z,19.44
2018-07-19T20:45:04.766Z,19.22
2018-07-19T20:47:35.745Z,19.22
2018-07-19T20:50:05.970Z,19.03
2018-07-19T20:52:37.519Z,19.08
2018-07-19T20:55:11.073Z,18.96
2018-07-19T20:57:40.818Z,18.89
2018-07-19T21:00:11.009Z,18.66
2018-07-19T21:02:41.879Z,18.57
2018-07-19T21:05:13.211Z,18.63
2018-07-19T21:07:43.292Z,18.57
2018-07-19T21:10:13.803Z,18.52
2018-07-19T21:12:43.891Z,18.66
2018-07-19T21:15:19.636Z,18.54
2018-07-19T21:17:51.925Z,18.60
2018-07-19T21:20:21.627Z,18.43
2018-07-19T21:22:52.901Z,18.49
2018-07-19T21:25:27.011Z,18.26
2018-07-19T21:27:56.569Z,18.20
2018-07-19T21:30:26.138Z,18.17
2018-07-19T21:32:56.119Z,17.97
2018-07-19T21:35:25.587Z,17.82
2018-07-19T21:37:55.276Z,17.87
2018-07-19T21:40:24.871Z,17.73
2018-07-19T21:42:54.508Z,17.74
2018-07-19T21:45:24.146Z,17.71
2018-07-19T21:47:54.001Z,17.66
2018-07-19T21:50:23.667Z,17.55
2018-07-19T21:52:53.216Z,17.51
2018-07-19T21:55:22.842Z,17.47
2018-07-19T21:57:52.143Z,17.42
2018-07-19T22:00:21.701Z,17.38
2018-07-19T22:02:51.414Z,17.34
2018-07-19T22:05:20.896Z,17.28
2018-07-19T22:07:50.216Z,17.15
2018-07-19T22:10:19.606Z,17.11
2018-07-19T22:12:49.373Z,16.98
2018-07-19T22:15:20.046Z,16.96
2018-07-19T22:17:49.537Z,16.89
2018-07-19T22:20:18.967Z,16.93
2018-07-19T22:22:48.181Z,17.01
2018-07-19T22:25:18.227Z,16.94
2018-07-19T22:27:48.039Z,16.80
2018-07-19T22:30:18.062Z,16.78
2018-07-19T22:32:47.900Z,16.72
2018-07-19T22:35:17.203Z,16.83
2018-07-19T22:37:46.640Z,16.80
2018-07-19T22:40:16.362Z,16.68
2018-07-19T22:42:46.629Z,16.58
2018-07-19T22:45:16.225Z,16.57
2018-07-19T22:47:47.213Z,16.53
2018-07-19T22:50:17.286Z,16.58
2018-07-19T22:52:47.714Z,16.51
2018-07-19T22:55:17.813Z,16.48
2018-07-19T22:57:47.476Z,16.38
2018-07-19T23:00:17.302Z,16.51
2018-07-19T23:02:47.254Z,16.59
2018-07-19T23:05:17.072Z,16.58
2018-07-19T23:07:47.442Z,16.57
2018-07-19T23:10:17.292Z,16.53
2018-07-19T23:12:47.621Z,16.39
2018-07-19T23:15:17.680Z,16.25
2018-07-19T23:17:47.243Z,16.20
2018-07-19T23:20:16.816Z,16.10
2018-07-19T23:22:51.900Z,16.08
2018-07-19T23:25:21.565Z,16.02
2018-07-19T23:27:51.116Z,15.91
2018-07-19T23:30:20.940Z,15.82
2018-07-19T23:32:50.559Z,15.83
2018-07-19T23:35:20.885Z,15.76
2018-07-19T23:37:52.142Z,15.63
2018-07-19T23:40:24.905Z,15.56
2018-07-19T23:43:00.037Z,15.41
2018-07-19T23:45:34.786Z,15.43
2018-07-19T23:48:05.855Z,15.49
2018-07-19T23:50:35.727Z,15.61
2018-07-19T23:53:05.494Z,15.63
2018-07-19T23:55:35.830Z,15.63
2018-07-19T23:58:06.162Z,15.57
